Raiatea — V7VA3 — position and weather

sailwx.info

Track history (hours):
 
Tides and Currents Weather Stations Pressure Air Temp Water Temp Dewpoint Dewpoint Depression Visibility Wind Speed Wind Dir Waves Ship Positions

Raiatea

Last reported at 2017-Sep-18 08:37 UTC. Time now 2017-Sep-26 06:00 UTC.
Position N 22°07' E 119°51'.

Length 292 m; draft 11 m.

Type: Cargo ship. MMSI: 538004070.

Date/timePositionNaut miles runAvg speedWind from/ knotsBaromVisibWave heightAir tempDewpointWater temp
2017-Sep-18 08:37N 22°07' E 119°51'110.6
2017-Sep-18 08:30N 22°09' E 119°51'814.6
2017-Sep-18 07:57N 22°17' E 119°51'714.9
2017-Sep-18 07:27N 22°24' E 119°51'715.0
2017-Sep-18 06:58N 22°31' E 119°51'714.9
2017-Sep-18 06:30N 22°38' E 119°51'714.7
2017-Sep-18 06:00N 22°46' E 119°52'4015.8
2017-Sep-18 03:27N 23°26' E 119°54'2015.1
2017-Sep-18 02:08N 23°46' E 119°56'1214.3
2017-Sep-18 01:17N 23°57' E 119°60'54311.1
2017-Sep-16 00:27N 32°28' E 123°29'  
Track history (hours):
 
Tides and Currents Weather Stations Pressure Air Temp Water Temp Dewpoint Dewpoint Depression Visibility Wind Speed Wind Dir Waves Ship Positions

Raiatea

Last reported at 2017-Sep-18 08:37 UTC. Time now 2017-Sep-26 06:00 UTC.
Position N 22°07' E 119°51'.

Length 292 m; draft 11 m.

Type: Cargo ship. MMSI: 538004070.

Date/timePositionNaut miles runAvg speedWind from/ knotsBaromVisibWave heightAir tempDewpointWater temp
2017-Sep-18 08:37N 22°07' E 119°51'110.6
2017-Sep-18 08:30N 22°09' E 119°51'814.6
2017-Sep-18 07:57N 22°17' E 119°51'714.9
2017-Sep-18 07:27N 22°24' E 119°51'715.0
2017-Sep-18 06:58N 22°31' E 119°51'714.9
2017-Sep-18 06:30N 22°38' E 119°51'714.7
2017-Sep-18 06:00N 22°46' E 119°52'4015.8
2017-Sep-18 03:27N 23°26' E 119°54'2015.1
2017-Sep-18 02:08N 23°46' E 119°56'1214.3
2017-Sep-18 01:17N 23°57' E 119°60'54311.1
2017-Sep-16 00:27N 32°28' E 123°29'  

Dump ship's entire track history